createdAt,value
2018-09-12T00:00:39.764Z,72.28
2018-09-12T00:03:08.590Z,72.50
2018-09-12T00:05:37.440Z,72.48
2018-09-12T00:08:06.273Z,72.29
2018-09-12T00:10:35.094Z,72.25
2018-09-12T00:13:03.925Z,72.61
2018-09-12T00:15:32.786Z,72.94
2018-09-12T00:18:01.601Z,73.17
2018-09-12T00:20:30.463Z,73.60
2018-09-12T00:22:59.278Z,74.17
2018-09-12T00:25:28.113Z,73.71
2018-09-12T00:27:56.941Z,73.60
2018-09-12T00:30:25.810Z,73.68
2018-09-12T00:32:54.627Z,73.46
2018-09-12T00:35:23.470Z,73.72
2018-09-12T00:37:52.277Z,74.00
2018-09-12T00:40:21.110Z,74.11
2018-09-12T00:42:49.962Z,74.69
2018-09-12T00:45:18.776Z,74.68
2018-09-12T00:47:47.615Z,74.74
2018-09-12T00:50:16.518Z,74.77
2018-09-12T00:52:45.383Z,74.72
2018-09-12T00:55:14.205Z,75.07
2018-09-12T00:57:43.081Z,75.00
2018-09-12T01:00:11.931Z,73.96
2018-09-12T01:02:40.772Z,74.56
2018-09-12T01:05:09.811Z,74.39
2018-09-12T01:07:38.687Z,74.75
2018-09-12T01:10:07.497Z,74.41
2018-09-12T01:12:36.487Z,74.54
2018-09-12T01:15:05.328Z,74.55
2018-09-12T01:17:34.180Z,74.65
2018-09-12T01:20:03.016Z,74.64
2018-09-12T01:22:31.846Z,74.91
2018-09-12T01:25:00.660Z,74.94
2018-09-12T01:27:29.582Z,74.86
2018-09-12T01:29:58.389Z,75.20
2018-09-12T01:32:27.234Z,75.66
2018-09-12T01:34:56.076Z,75.70
2018-09-12T01:37:24.945Z,75.28
2018-09-12T01:39:53.802Z,76.12
2018-09-12T01:42:22.622Z,76.36
2018-09-12T01:44:51.482Z,76.50
2018-09-12T01:47:20.306Z,76.08
2018-09-12T01:49:49.133Z,76.34
2018-09-12T01:52:17.959Z,75.29
2018-09-12T01:54:46.797Z,76.06
2018-09-12T01:57:15.614Z,76.45
2018-09-12T01:59:44.449Z,76.63
2018-09-12T02:02:13.266Z,77.01
2018-09-12T02:04:42.120Z,77.19
2018-09-12T02:07:10.953Z,77.44
2018-09-12T02:09:39.788Z,77.09
2018-09-12T02:12:08.636Z,77.60
2018-09-12T02:14:37.474Z,77.70
2018-09-12T02:17:06.291Z,77.41
2018-09-12T02:19:35.140Z,77.19
2018-09-12T02:22:03.989Z,76.99
2018-09-12T02:24:32.846Z,76.99
2018-09-12T02:27:01.688Z,77.03
2018-09-12T02:29:30.526Z,75.87
2018-09-12T02:31:59.369Z,76.85
2018-09-12T02:34:28.210Z,75.70
2018-09-12T02:36:57.060Z,76.74
2018-09-12T02:39:25.894Z,75.57
2018-09-12T02:41:54.735Z,77.09
2018-09-12T02:44:23.577Z,77.32
2018-09-12T02:46:52.426Z,77.51
2018-09-12T02:49:21.255Z,77.43
2018-09-12T02:51:50.114Z,77.30
2018-09-12T02:54:18.943Z,77.51
2018-09-12T02:56:47.797Z,78.56
2018-09-12T02:59:16.622Z,78.16
2018-09-12T03:01:45.490Z,78.35
2018-09-12T03:04:14.341Z,78.87
2018-09-12T03:06:43.182Z,77.75
2018-09-12T03:09:12.008Z,78.91
2018-09-12T03:11:40.858Z,79.23
2018-09-12T03:14:09.723Z,79.49
2018-09-12T03:16:38.548Z,79.58
2018-09-12T03:19:07.415Z,79.99
2018-09-12T03:21:36.254Z,80.50
2018-09-12T03:24:05.314Z,79.62
2018-09-12T03:26:34.164Z,80.29
2018-09-12T03:29:02.998Z,80.47
2018-09-12T03:31:31.818Z,80.63
2018-09-12T03:34:00.665Z,80.93
2018-09-12T03:36:29.491Z,81.49
2018-09-12T03:38:58.369Z,81.63
2018-09-12T03:41:27.179Z,81.21
2018-09-12T03:43:56.048Z,81.50
2018-09-12T03:46:24.885Z,82.00
2018-09-12T03:48:53.729Z,82.06
2018-09-12T03:51:22.549Z,81.90
2018-09-12T03:53:51.397Z,82.21
2018-09-12T03:56:20.219Z,82.64
2018-09-12T03:58:49.082Z,82.36
2018-09-12T04:01:17.875Z,81.70
2018-09-12T04:03:46.740Z,80.41
2018-09-12T04:06:15.572Z,81.24
2018-09-12T04:08:44.392Z,81.21
2018-09-12T04:11:13.266Z,81.00
2018-09-12T04:13:42.217Z,80.89
2018-09-12T04:16:11.093Z,80.57
2018-09-12T04:18:39.971Z,80.66
2018-09-12T04:21:08.786Z,80.66
2018-09-12T04:23:37.637Z,80.69
2018-09-12T04:26:06.475Z,81.46
2018-09-12T04:28:35.392Z,81.76
2018-09-12T04:31:04.222Z,81.86
2018-09-12T04:33:33.064Z,81.80
2018-09-12T04:36:01.904Z,81.70
2018-09-12T04:38:30.751Z,81.65
2018-09-12T04:40:59.599Z,82.05
2018-09-12T04:43:28.447Z,82.16
2018-09-12T04:45:57.287Z,82.32
2018-09-12T04:48:26.271Z,82.37
2018-09-12T04:50:55.313Z,82.15
2018-09-12T04:53:24.208Z,82.27
2018-09-12T04:55:53.046Z,82.45
2018-09-12T04:58:21.882Z,82.39
2018-09-12T05:00:50.734Z,82.12
2018-09-12T05:03:19.595Z,82.37
2018-09-12T05:05:48.406Z,81.96
2018-09-12T05:08:17.252Z,82.06
2018-09-12T05:10:46.078Z,82.35
2018-09-12T05:13:14.925Z,82.22
2018-09-12T05:15:43.764Z,80.82
2018-09-12T05:18:12.632Z,81.62
2018-09-12T05:20:41.465Z,82.04
2018-09-12T05:23:10.330Z,82.25
2018-09-12T05:25:39.176Z,81.99
2018-09-12T05:28:08.020Z,81.97
2018-09-12T05:30:36.854Z,81.63
2018-09-12T05:33:05.725Z,81.91
2018-09-12T05:35:34.589Z,82.26
2018-09-12T05:38:03.424Z,82.08
2018-09-12T05:40:32.379Z,80.19
2018-09-12T05:43:01.273Z,81.68
2018-09-12T05:45:30.098Z,81.42
2018-09-12T05:47:58.933Z,81.45
2018-09-12T05:50:27.779Z,81.70
2018-09-12T05:52:56.622Z,81.84
2018-09-12T05:55:25.448Z,82.45
2018-09-12T05:57:55.253Z,82.06
2018-09-12T06:00:24.115Z,82.47
2018-09-12T06:02:52.962Z,82.41
2018-09-12T06:05:21.890Z,82.06
2018-09-12T06:07:50.700Z,82.30
2018-09-12T06:10:19.607Z,81.77
2018-09-12T06:12:48.474Z,81.66
2018-09-12T06:15:17.345Z,82.11
2018-09-12T06:17:46.181Z,81.85
2018-09-12T06:20:15.026Z,81.62
2018-09-12T06:22:43.841Z,82.18
2018-09-12T06:25:12.677Z,81.94
2018-09-12T06:27:41.563Z,80.41
2018-09-12T06:30:10.396Z,81.42
2018-09-12T06:32:39.224Z,81.40
2018-09-12T06:35:08.060Z,81.50
2018-09-12T06:37:36.889Z,81.14
2018-09-12T06:40:05.753Z,81.29
2018-09-12T06:42:34.619Z,80.91
2018-09-12T06:45:03.457Z,79.50
2018-09-12T06:47:32.314Z,80.54
2018-09-12T06:50:01.209Z,80.34
2018-09-12T06:52:30.040Z,80.20
2018-09-12T06:54:58.910Z,80.24
2018-09-12T06:57:27.794Z,80.14
2018-09-12T06:59:56.659Z,79.98
2018-09-12T07:02:25.489Z,79.59
2018-09-12T07:04:54.333Z,77.94
2018-09-12T07:07:26.472Z,78.73
2018-09-12T07:09:55.675Z,78.53
2018-09-12T07:12:24.827Z,77.79
2018-09-12T07:14:53.722Z,77.78
2018-09-12T07:17:22.908Z,77.91
2018-09-12T07:19:52.566Z,77.78
2018-09-12T07:22:24.146Z,77.53
2018-09-12T07:24:53.563Z,77.08
2018-09-12T07:27:22.656Z,76.92
2018-09-12T07:29:51.818Z,76.84
2018-09-12T07:32:20.843Z,77.08
2018-09-12T07:34:52.667Z,76.85
2018-09-12T07:37:21.649Z,77.02
2018-09-12T07:39:50.713Z,77.08
2018-09-12T07:42:19.785Z,77.02
2018-09-12T07:44:51.866Z,76.32
2018-09-12T07:47:24.228Z,75.56
2018-09-12T07:49:53.677Z,73.12
2018-09-12T07:52:22.794Z,72.16
2018-09-12T07:54:51.680Z,72.16
2018-09-12T07:57:20.519Z,71.80
2018-09-12T07:59:49.335Z,71.60
2018-09-12T08:02:18.176Z,71.74
2018-09-12T08:04:46.990Z,72.55
2018-09-12T08:07:15.875Z,73.40
2018-09-12T08:09:44.698Z,74.63
2018-09-12T08:12:13.658Z,74.05
2018-09-12T08:14:42.380Z,75.07
2018-09-12T08:17:11.229Z,75.34
2018-09-12T08:19:40.109Z,75.37
2018-09-12T08:22:08.955Z,75.02
2018-09-12T08:24:37.823Z,75.21
2018-09-12T08:27:06.669Z,74.13
2018-09-12T08:29:35.501Z,73.76
2018-09-12T08:32:04.335Z,74.87
2018-09-12T08:34:33.182Z,74.21
2018-09-12T08:37:02.055Z,75.03
2018-09-12T08:39:30.876Z,74.92
2018-09-12T08:41:59.788Z,73.88
2018-09-12T08:44:28.637Z,71.62
2018-09-12T08:46:57.445Z,71.26
2018-09-12T08:49:26.278Z,70.92
2018-09-12T08:51:55.144Z,71.28
2018-09-12T08:54:23.976Z,71.30
2018-09-12T08:56:52.997Z,71.86
2018-09-12T08:59:21.706Z,71.78
2018-09-12T09:01:50.538Z,71.74
2018-09-12T09:04:19.419Z,72.32
2018-09-12T09:06:48.249Z,72.09
2018-09-12T09:09:17.077Z,72.66
2018-09-12T09:11:45.943Z,72.86
2018-09-12T09:14:14.778Z,72.97
2018-09-12T09:16:43.623Z,72.18
2018-09-12T09:19:12.536Z,71.76
2018-09-12T09:21:41.412Z,72.68
2018-09-12T09:24:10.192Z,72.35
2018-09-12T09:26:39.040Z,72.16
2018-09-12T09:29:07.897Z,72.08
2018-09-12T09:31:36.743Z,71.60
2018-09-12T09:34:05.651Z,70.84
2018-09-12T09:36:34.486Z,70.76
2018-09-12T09:39:03.594Z,70.71
2018-09-12T09:41:32.423Z,70.53
2018-09-12T09:44:01.267Z,70.21
2018-09-12T09:46:30.096Z,70.03
2018-09-12T09:48:58.910Z,70.38
2018-09-12T09:51:27.759Z,69.27
2018-09-12T09:53:56.563Z,69.91
2018-09-12T09:56:25.430Z,69.05
2018-09-12T09:58:54.252Z,69.06
2018-09-12T10:01:40.827Z,69.06
2018-09-12T10:04:22.602Z,68.75
2018-09-12T10:07:19.714Z,68.80
2018-09-12T10:09:48.494Z,68.83
2018-09-12T10:12:17.376Z,69.04
2018-09-12T10:14:46.343Z,68.99
2018-09-12T10:17:15.138Z,68.83
2018-09-12T10:19:43.982Z,69.12
2018-09-12T10:22:12.853Z,69.85
2018-09-12T10:24:41.698Z,69.81
2018-09-12T10:27:10.533Z,69.55
2018-09-12T10:29:39.390Z,68.06
2018-09-12T10:32:08.203Z,65.17
2018-09-12T10:34:39.794Z,62.87
2018-09-12T10:37:08.651Z,62.78
2018-09-12T10:39:37.470Z,62.12
2018-09-12T10:42:06.312Z,62.17
2018-09-12T10:44:35.177Z,63.39
2018-09-12T10:47:04.093Z,62.51
2018-09-12T10:49:32.999Z,63.44
2018-09-12T10:52:02.236Z,63.04
2018-09-12T10:54:31.613Z,63.89
2018-09-12T10:57:00.531Z,63.09
2018-09-12T10:59:29.378Z,62.38
2018-09-12T11:01:58.244Z,63.06
2018-09-12T11:04:27.189Z,63.36
2018-09-12T11:06:55.886Z,63.57
2018-09-12T11:09:24.735Z,63.52
2018-09-12T11:11:53.607Z,63.79
2018-09-12T11:14:22.428Z,64.24
2018-09-12T11:16:51.271Z,64.70
2018-09-12T11:19:20.106Z,65.14
2018-09-12T11:21:48.969Z,65.55
2018-09-12T11:24:17.772Z,65.33
2018-09-12T11:26:46.596Z,65.24
2018-09-12T11:29:15.450Z,65.08
2018-09-12T11:31:44.269Z,64.83
2018-09-12T11:34:13.144Z,64.87
2018-09-12T11:36:41.934Z,64.49
2018-09-12T11:39:11.864Z,65.62
2018-09-12T11:41:40.808Z,65.87
2018-09-12T11:44:09.613Z,65.87
2018-09-12T11:46:38.488Z,66.08
2018-09-12T11:49:07.311Z,66.36
2018-09-12T11:51:36.120Z,66.49
2018-09-12T11:54:04.995Z,67.11
2018-09-12T11:56:33.847Z,67.48
2018-09-12T11:59:02.677Z,69.77
2018-09-12T12:01:31.477Z,68.62
2018-09-12T12:04:00.322Z,67.13
2018-09-12T12:06:29.189Z,67.91
2018-09-12T12:08:58.035Z,67.05
2018-09-12T12:11:26.876Z,67.57
2018-09-12T12:13:55.715Z,68.26
2018-09-12T12:16:24.594Z,68.27
2018-09-12T12:18:53.408Z,67.50
2018-09-12T12:21:22.262Z,67.15
2018-09-12T12:23:51.107Z,67.93
2018-09-12T12:26:19.951Z,67.65
2018-09-12T12:28:48.835Z,67.42
2018-09-12T12:31:17.676Z,67.54
2018-09-12T12:33:46.527Z,66.35
2018-09-12T12:36:15.446Z,68.50
2018-09-12T12:38:44.308Z,68.68
2018-09-12T12:41:13.180Z,69.26
2018-09-12T12:43:41.994Z,70.46
2018-09-12T12:46:11.115Z,67.87
2018-09-12T12:48:39.946Z,69.89
2018-09-12T12:51:08.769Z,69.87
2018-09-12T12:53:37.712Z,69.85
2018-09-12T12:56:06.588Z,70.28
2018-09-12T12:58:35.427Z,69.46
2018-09-12T13:01:04.278Z,69.95
2018-09-12T13:03:33.088Z,69.36
2018-09-12T13:06:04.512Z,69.92
2018-09-12T13:08:33.625Z,70.08
2018-09-12T13:11:02.676Z,71.21
2018-09-12T13:13:32.791Z,71.24
2018-09-12T13:16:04.630Z,71.43
2018-09-12T13:18:34.213Z,72.72
2018-09-12T13:21:03.380Z,73.13
2018-09-12T13:23:35.194Z,73.27
2018-09-12T13:26:04.364Z,73.54
2018-09-12T13:28:38.804Z,73.20
2018-09-12T13:31:08.050Z,73.35
2018-09-12T13:33:37.285Z,73.27
2018-09-12T13:36:08.418Z,72.55
2018-09-12T13:38:36.210Z,72.23
2018-09-12T13:41:05.290Z,72.44
2018-09-12T13:43:38.691Z,72.71
2018-09-12T13:46:07.850Z,73.12
2018-09-12T13:48:36.979Z,73.33
2018-09-12T13:51:06.131Z,72.76
2018-09-12T13:53:35.451Z,72.34
2018-09-12T13:56:07.161Z,73.07
2018-09-12T13:58:36.144Z,73.36
2018-09-12T14:01:05.263Z,72.28
2018-09-12T14:03:35.447Z,72.41
2018-09-12T14:06:04.556Z,71.21
2018-09-12T14:08:33.710Z,71.50
2018-09-12T14:11:03.680Z,71.02
2018-09-12T14:13:32.704Z,69.63
2018-09-12T14:16:01.872Z,69.81
2018-09-12T14:18:31.018Z,70.96
2018-09-12T14:21:00.046Z,71.99
2018-09-12T14:23:29.170Z,71.47
2018-09-12T14:26:00.943Z,71.20
2018-09-12T14:28:32.476Z,69.91
2018-09-12T14:31:01.590Z,70.04
2018-09-12T14:33:30.528Z,69.62
2018-09-12T14:35:59.676Z,68.91
2018-09-12T14:38:28.632Z,69.05
2018-09-12T14:40:57.682Z,68.46
2018-09-12T14:43:26.860Z,68.53
2018-09-12T14:45:55.882Z,68.74
2018-09-12T14:48:24.940Z,68.75
2018-09-12T14:50:54.248Z,68.66
2018-09-12T14:53:23.379Z,68.34
2018-09-12T14:55:55.220Z,68.87
2018-09-12T14:58:24.270Z,69.88
2018-09-12T15:00:54.075Z,69.88
2018-09-12T15:03:23.763Z,69.50
2018-09-12T15:05:52.893Z,71.17
2018-09-12T15:08:22.017Z,70.45
2018-09-12T15:10:51.105Z,70.08
2018-09-12T15:13:19.952Z,70.16
2018-09-12T15:15:48.802Z,69.43
2018-09-12T15:18:17.636Z,68.62
2018-09-12T15:20:46.482Z,68.01
2018-09-12T15:23:15.300Z,67.72
2018-09-12T15:25:44.128Z,68.12
2018-09-12T15:28:12.932Z,68.35
2018-09-12T15:30:41.780Z,69.04
2018-09-12T15:33:10.595Z,70.18
2018-09-12T15:35:39.477Z,69.85
2018-09-12T15:38:08.297Z,70.17
2018-09-12T15:40:37.112Z,69.54
2018-09-12T15:43:06.065Z,69.24
2018-09-12T15:45:34.907Z,69.93
2018-09-12T15:48:03.721Z,70.39
2018-09-12T15:50:32.553Z,70.87
2018-09-12T15:53:01.605Z,71.59
2018-09-12T15:55:30.474Z,70.97
2018-09-12T15:57:59.390Z,71.73
2018-09-12T16:00:28.135Z,72.14
2018-09-12T16:02:56.972Z,72.09
2018-09-12T16:05:25.792Z,72.32
2018-09-12T16:07:54.633Z,73.38
2018-09-12T16:10:23.480Z,73.22
2018-09-12T16:12:52.319Z,72.84
2018-09-12T16:15:21.200Z,72.04
2018-09-12T16:17:49.990Z,70.72
2018-09-12T16:20:18.818Z,71.88
2018-09-12T16:22:47.672Z,71.81
2018-09-12T16:25:16.533Z,71.67
2018-09-12T16:27:45.364Z,71.37
2018-09-12T16:30:14.188Z,72.23
2018-09-12T16:32:43.209Z,71.04
2018-09-12T16:35:11.849Z,73.06
2018-09-12T16:37:40.662Z,72.52
2018-09-12T16:40:09.538Z,72.04
2018-09-12T16:42:38.322Z,72.04
2018-09-12T16:45:07.140Z,71.85
2018-09-12T16:47:35.988Z,71.87
2018-09-12T16:50:05.272Z,71.47
2018-09-12T16:52:34.147Z,71.69
2018-09-12T16:55:02.972Z,71.37
2018-09-12T16:57:31.819Z,71.12
2018-09-12T17:00:00.666Z,70.73
2018-09-12T17:02:29.601Z,71.11
2018-09-12T17:04:58.426Z,71.85
2018-09-12T17:07:27.302Z,72.06
2018-09-12T17:09:56.150Z,71.63
2018-09-12T17:12:24.992Z,71.49
2018-09-12T17:14:53.819Z,71.88
2018-09-12T17:17:22.673Z,71.93
2018-09-12T17:19:51.488Z,72.20
2018-09-12T17:22:20.321Z,72.26
2018-09-12T17:24:49.140Z,72.32
2018-09-12T17:27:18.000Z,72.53
2018-09-12T17:29:46.844Z,72.22
2018-09-12T17:32:15.722Z,72.20
2018-09-12T17:34:44.520Z,72.31
2018-09-12T17:37:13.393Z,72.81
2018-09-12T17:39:42.220Z,72.97
2018-09-12T17:42:11.041Z,73.85
2018-09-12T17:44:39.891Z,73.67
2018-09-12T17:47:08.693Z,73.60
2018-09-12T17:49:37.571Z,73.87
2018-09-12T17:52:06.569Z,74.09
2018-09-12T17:54:35.456Z,73.87
2018-09-12T17:57:04.321Z,74.08
2018-09-12T17:59:33.174Z,74.17
2018-09-12T18:02:01.999Z,74.18
2018-09-12T18:04:30.866Z,73.87
2018-09-12T18:06:59.664Z,73.06
2018-09-12T18:09:28.605Z,73.85
2018-09-12T18:11:57.426Z,73.82
2018-09-12T18:14:26.255Z,74.10
2018-09-12T18:16:55.082Z,74.39
2018-09-12T18:19:24.023Z,74.35
2018-09-12T18:21:52.871Z,74.64
2018-09-12T18:24:21.746Z,73.89
2018-09-12T18:26:50.516Z,75.15
2018-09-12T18:29:19.705Z,74.19
2018-09-12T18:31:48.574Z,75.45
2018-09-12T18:34:17.416Z,75.84
2018-09-12T18:36:46.263Z,75.24
2018-09-12T18:39:15.101Z,76.25
2018-09-12T18:41:43.955Z,76.42
2018-09-12T18:44:12.790Z,76.16
2018-09-12T18:46:41.605Z,75.89
2018-09-12T18:49:10.420Z,75.77
2018-09-12T18:51:39.242Z,74.64
2018-09-12T18:54:08.242Z,75.85
2018-09-12T18:56:36.951Z,75.98
2018-09-12T18:59:05.812Z,75.77
2018-09-12T19:01:34.643Z,75.56
2018-09-12T19:04:03.533Z,75.59
2018-09-12T19:06:32.421Z,76.16
2018-09-12T19:09:01.201Z,76.39
2018-09-12T19:11:30.037Z,76.92
2018-09-12T19:13:58.881Z,77.18
2018-09-12T19:16:27.701Z,77.24
2018-09-12T19:18:56.556Z,76.95
2018-09-12T19:21:25.486Z,76.50
2018-09-12T19:23:54.337Z,76.58
2018-09-12T19:26:23.301Z,76.94
2018-09-12T19:28:52.109Z,77.21
2018-09-12T19:31:20.949Z,76.91
2018-09-12T19:33:49.832Z,77.18
2018-09-12T19:36:18.679Z,77.22
2018-09-12T19:38:47.469Z,77.19
2018-09-12T19:41:16.320Z,77.23
2018-09-12T19:43:45.203Z,77.57
2018-09-12T19:46:14.023Z,77.44
2018-09-12T19:48:42.906Z,77.41
2018-09-12T19:51:14.985Z,77.40
2018-09-12T19:53:44.165Z,77.36
2018-09-12T19:56:13.890Z,77.71
2018-09-12T19:58:43.616Z,78.09
2018-09-12T20:01:12.456Z,77.53
2018-09-12T20:03:41.273Z,77.29
2018-09-12T20:06:10.077Z,77.97
2018-09-12T20:08:38.916Z,77.99
2018-09-12T20:11:07.773Z,77.48
2018-09-12T20:13:36.632Z,77.68
2018-09-12T20:16:05.497Z,77.84
2018-09-12T20:18:34.302Z,78.16
2018-09-12T20:21:03.171Z,77.80
2018-09-12T20:23:32.140Z,77.88
2018-09-12T20:26:00.899Z,77.72
2018-09-12T20:28:31.591Z,77.68
2018-09-12T20:31:00.426Z,77.69
2018-09-12T20:33:29.255Z,77.55
2018-09-12T20:35:58.099Z,77.88
2018-09-12T20:38:26.972Z,77.88
2018-09-12T20:40:55.808Z,77.51
2018-09-12T20:43:24.671Z,77.43
2018-09-12T20:45:53.497Z,77.46
2018-09-12T20:48:22.397Z,77.95
2018-09-12T20:50:51.225Z,77.13
2018-09-12T20:53:20.073Z,76.42
2018-09-12T20:55:48.997Z,77.89
2018-09-12T20:58:17.867Z,76.52
2018-09-12T21:00:46.738Z,78.07
2018-09-12T21:03:15.571Z,78.10
2018-09-12T21:05:44.439Z,76.57
2018-09-12T21:08:13.309Z,77.72
2018-09-12T21:10:42.227Z,77.51
2018-09-12T21:13:11.005Z,76.08
2018-09-12T21:15:39.875Z,77.60
2018-09-12T21:18:08.770Z,76.11
2018-09-12T21:20:37.536Z,75.62
2018-09-12T21:23:06.518Z,77.28
2018-09-12T21:25:35.379Z,77.73
2018-09-12T21:28:04.365Z,77.94
2018-09-12T21:30:33.232Z,78.25
2018-09-12T21:33:02.097Z,77.96
2018-09-12T21:35:30.971Z,78.33
2018-09-12T21:37:59.787Z,78.09
2018-09-12T21:40:28.635Z,77.83
2018-09-12T21:42:57.480Z,78.20
2018-09-12T21:45:26.348Z,78.58
2018-09-12T21:47:55.282Z,77.01
2018-09-12T21:50:24.131Z,77.72
2018-09-12T21:52:52.994Z,77.92
2018-09-12T21:55:21.845Z,78.53
2018-09-12T21:57:50.721Z,78.77
2018-09-12T22:00:19.534Z,78.60
2018-09-12T22:02:48.416Z,78.62
2018-09-12T22:05:17.253Z,78.68
2018-09-12T22:07:46.075Z,78.89
2018-09-12T22:10:14.918Z,78.89
2018-09-12T22:12:43.748Z,78.74
2018-09-12T22:15:12.567Z,78.39
2018-09-12T22:17:41.430Z,78.57
2018-09-12T22:20:10.285Z,78.61
2018-09-12T22:22:39.126Z,79.04
2018-09-12T22:25:07.937Z,78.97
2018-09-12T22:27:36.756Z,77.45
2018-09-12T22:30:07.230Z,78.64
2018-09-12T22:32:36.067Z,78.41
2018-09-12T22:35:04.993Z,78.86
2018-09-12T22:37:33.835Z,78.61
2018-09-12T22:40:02.696Z,78.48
2018-09-12T22:42:31.520Z,77.99
2018-09-12T22:45:00.376Z,78.43
2018-09-12T22:47:29.215Z,78.02
2018-09-12T22:49:58.061Z,78.04
2018-09-12T22:52:26.944Z,78.14
2018-09-12T22:54:55.839Z,78.27
2018-09-12T22:57:24.708Z,78.15
2018-09-12T22:59:53.543Z,77.31
2018-09-12T23:02:22.408Z,76.75
2018-09-12T23:04:51.250Z,77.99
2018-09-12T23:07:20.090Z,78.62
2018-09-12T23:09:48.937Z,78.19
2018-09-12T23:12:17.786Z,78.28
2018-09-12T23:14:46.634Z,78.21
2018-09-12T23:17:15.482Z,78.71
2018-09-12T23:19:44.335Z,78.57
2018-09-12T23:22:13.165Z,78.55
2018-09-12T23:24:42.009Z,78.69
2018-09-12T23:27:10.824Z,78.44
2018-09-12T23:29:39.681Z,77.20
2018-09-12T23:32:08.508Z,78.20
2018-09-12T23:34:37.360Z,78.20
2018-09-12T23:37:06.204Z,78.05
2018-09-12T23:39:35.048Z,78.23
2018-09-12T23:42:03.868Z,78.43
2018-09-12T23:44:32.723Z,77.08
2018-09-12T23:47:01.538Z,78.19
2018-09-12T23:49:30.412Z,78.15
2018-09-12T23:51:59.253Z,78.47
2018-09-12T23:54:28.098Z,78.60
2018-09-12T23:56:56.964Z,78.67
2018-09-12T23:59:25.778Z,78.75
